Terminal Aerodrome Forecast
Issued by NWS

Home | Current Version | Previous Version | Text Only | Print | Product List | Glossary On
Versions: 1 2 3 4 5 6 7 8 9 10 11 12 13 14 15 16 17 18 19 20 21 22
000
FTUS43 KGLD 100520
TAFMCK
TAF
KMCK 100520Z 1006/1106 VRB05KT P6SM BKN080
     FM100900 28010KT P6SM SCT080 SCT250 WS020/32050KT
     FM101700 32010G16KT P6SM SCT250
     FM110000 31007KT P6SM SKC=

USA.gov is the U.S. government's official web portal to all federal, state and local government web resources and services.